createdAt,value
2023-04-02T00:01:19.598Z,4.30
2023-04-02T00:04:22.131Z,4.30
2023-04-02T00:07:31.222Z,4.20
2023-04-02T00:10:03.162Z,4.10
2023-04-02T00:12:35.004Z,4.10
2023-04-02T00:15:07.586Z,4.00
2023-04-02T00:17:41.130Z,4.00
2023-04-02T00:20:20.142Z,4.10
2023-04-02T00:22:52.895Z,4.10
2023-04-02T00:25:27.940Z,4.00
2023-04-02T00:28:00.508Z,4.10
2023-04-02T00:30:33.130Z,4.10
2023-04-02T00:33:06.183Z,4.00
2023-04-02T00:35:42.324Z,4.00
2023-04-02T00:38:21.116Z,4.00
2023-04-02T00:40:56.869Z,4.00
2023-04-02T00:43:32.888Z,4.00
2023-04-02T00:46:14.171Z,3.90
2023-04-02T00:48:55.499Z,3.90
2023-04-02T00:51:33.307Z,3.90
2023-04-02T00:54:15.548Z,3.90
2023-04-02T00:56:51.657Z,3.80
2023-04-02T00:59:30.741Z,3.80
2023-04-02T01:02:26.297Z,3.80
2023-04-02T01:05:03.411Z,3.80
2023-04-02T01:07:52.450Z,3.90
2023-04-02T01:10:53.666Z,3.80
2023-04-02T01:13:37.718Z,3.70
2023-04-02T01:16:20.947Z,3.70
2023-04-02T01:19:08.652Z,3.70
2023-04-02T01:21:53.828Z,3.60
2023-04-02T01:24:31.110Z,3.60
2023-04-02T01:27:08.316Z,3.60
2023-04-02T01:29:48.496Z,3.60
2023-04-02T01:32:24.730Z,3.50
2023-04-02T01:34:58.286Z,3.60
2023-04-02T01:37:44.899Z,3.60
2023-04-02T01:40:34.923Z,3.50
2023-04-02T01:43:16.837Z,3.50
2023-04-02T01:45:50.589Z,3.50
2023-04-02T01:48:30.004Z,3.50
2023-04-02T01:51:08.134Z,3.50
2023-04-02T01:53:40.244Z,3.40
2023-04-02T01:56:12.147Z,3.40
2023-04-02T01:58:44.068Z,3.40
2023-04-02T02:01:22.559Z,3.40
2023-04-02T02:03:55.885Z,3.40
2023-04-02T02:06:28.327Z,3.40
2023-04-02T02:09:04.784Z,3.50
2023-04-02T02:11:38.413Z,3.40
2023-04-02T02:14:18.655Z,3.30
2023-04-02T02:16:56.528Z,3.30
2023-04-02T02:19:34.845Z,3.30
2023-04-02T02:22:15.404Z,3.30
2023-04-02T02:24:48.974Z,3.30
2023-04-02T02:27:48.348Z,3.30
2023-04-02T02:30:28.161Z,3.20
2023-04-02T02:33:06.592Z,3.20
2023-04-02T02:35:44.020Z,3.30
2023-04-02T02:38:32.676Z,3.30
2023-04-02T02:41:14.451Z,3.40
2023-04-02T02:43:54.216Z,3.30
2023-04-02T02:46:29.212Z,3.40
2023-04-02T02:49:06.035Z,3.30
2023-04-02T02:51:49.054Z,3.30
2023-04-02T02:54:23.203Z,3.30
2023-04-02T02:57:02.196Z,3.30
2023-04-02T02:59:35.145Z,3.20
2023-04-02T03:02:08.432Z,3.20
2023-04-02T03:04:41.877Z,3.20
2023-04-02T03:07:16.162Z,3.30
2023-04-02T03:09:55.446Z,3.30
2023-04-02T03:12:41.591Z,3.20
2023-04-02T03:15:22.436Z,3.20
2023-04-02T03:18:01.692Z,3.20
2023-04-02T03:20:46.754Z,3.20
2023-04-02T03:23:29.527Z,3.30
2023-04-02T03:26:11.267Z,3.20
2023-04-02T03:28:51.253Z,3.20
2023-04-02T03:31:29.829Z,3.30
2023-04-02T03:34:05.617Z,3.20
2023-04-02T03:36:49.056Z,3.20
2023-04-02T03:39:28.181Z,3.20
2023-04-02T03:42:05.910Z,3.20
2023-04-02T03:44:49.062Z,3.20
2023-04-02T03:47:31.829Z,3.20
2023-04-02T03:50:13.071Z,3.20
2023-04-02T03:52:46.678Z,3.20
2023-04-02T03:55:23.914Z,3.30
2023-04-02T03:58:03.620Z,3.20
2023-04-02T04:00:43.022Z,3.20
2023-04-02T04:03:22.182Z,3.20
2023-04-02T04:05:58.417Z,3.30
2023-04-02T04:08:42.349Z,3.20
2023-04-02T04:11:18.810Z,3.10
2023-04-02T04:13:58.648Z,3.20
2023-04-02T04:16:35.939Z,3.20
2023-04-02T04:19:18.084Z,3.20
2023-04-02T04:21:57.925Z,3.20
2023-04-02T04:24:32.661Z,3.20
2023-04-02T04:27:17.189Z,3.20
2023-04-02T04:29:56.825Z,3.20
2023-04-02T04:32:33.637Z,3.20
2023-04-02T04:35:15.688Z,3.10
2023-04-02T04:37:49.764Z,3.10
2023-04-02T04:40:29.635Z,3.10
2023-04-02T04:43:07.156Z,3.20
2023-04-02T04:45:49.106Z,3.10
2023-04-02T04:48:28.554Z,3.10
2023-04-02T04:51:05.830Z,3.20
2023-04-02T04:53:47.361Z,3.20
2023-04-02T04:56:29.151Z,3.10
2023-04-02T04:59:13.425Z,3.20
2023-04-02T05:01:53.313Z,3.20
2023-04-02T05:04:32.006Z,3.10
2023-04-02T05:07:12.650Z,3.20
2023-04-02T05:09:52.540Z,3.20
2023-04-02T05:12:37.289Z,3.20
2023-04-02T05:15:15.735Z,3.20
2023-04-02T05:17:53.540Z,3.20
2023-04-02T05:20:32.676Z,3.20
2023-04-02T05:23:16.792Z,3.20
2023-04-02T05:26:00.324Z,3.10
2023-04-02T05:28:44.077Z,3.10
2023-04-02T05:31:21.051Z,3.10
2023-04-02T05:33:55.036Z,3.10
2023-04-02T05:36:30.787Z,3.10
2023-04-02T05:39:04.161Z,3.20
2023-04-02T05:41:40.392Z,3.10
2023-04-02T05:44:24.385Z,3.20
2023-04-02T05:47:05.978Z,3.20
2023-04-02T05:49:48.246Z,3.20
2023-04-02T05:52:28.885Z,3.20
2023-04-02T05:55:24.542Z,3.20
2023-04-02T05:58:29.555Z,3.20
2023-04-02T06:01:07.659Z,3.20
2023-04-02T06:03:50.564Z,3.20
2023-04-02T06:06:30.491Z,3.30
2023-04-02T06:09:10.740Z,3.20
2023-04-02T06:11:49.085Z,3.20
2023-04-02T06:14:22.013Z,3.20
2023-04-02T06:16:55.143Z,3.20
2023-04-02T06:19:36.723Z,3.30
2023-04-02T06:22:19.912Z,3.30
2023-04-02T06:24:59.260Z,3.20
2023-04-02T06:27:34.295Z,3.30
2023-04-02T06:30:16.093Z,3.20
2023-04-02T06:32:49.253Z,3.30
2023-04-02T06:35:21.324Z,3.30
2023-04-02T06:37:58.007Z,3.30
2023-04-02T06:40:40.586Z,3.40
2023-04-02T06:43:23.884Z,3.40
2023-04-02T06:45:58.617Z,3.40
2023-04-02T06:48:34.777Z,3.40
2023-04-02T06:51:12.815Z,3.40
2023-04-02T06:53:51.570Z,3.40
2023-04-02T06:56:37.084Z,3.50
2023-04-02T06:59:09.480Z,3.50
2023-04-02T07:01:46.250Z,3.50
2023-04-02T07:04:21.642Z,3.50
2023-04-02T07:06:53.845Z,3.50
2023-04-02T07:09:25.924Z,3.50
2023-04-02T07:11:57.569Z,3.60
2023-04-02T07:14:30.920Z,3.60
2023-04-02T07:17:02.763Z,3.60
2023-04-02T07:19:35.708Z,3.60
2023-04-02T07:22:08.932Z,3.60
2023-04-02T07:24:40.833Z,3.60
2023-04-02T07:27:12.681Z,3.60
2023-04-02T07:29:44.522Z,3.60
2023-04-02T07:32:17.306Z,3.70
2023-04-02T07:34:50.530Z,3.70
2023-04-02T07:37:22.402Z,3.80
2023-04-02T07:39:54.307Z,3.70
2023-04-02T07:42:26.187Z,3.70
2023-04-02T07:44:58.193Z,3.70
2023-04-02T07:47:30.823Z,3.80
2023-04-02T07:50:03.817Z,3.80
2023-04-02T07:52:37.632Z,3.70
2023-04-02T07:55:12.511Z,3.80
2023-04-02T07:57:51.102Z,3.80
2023-04-02T08:00:28.322Z,3.90
2023-04-02T08:02:59.971Z,3.80
2023-04-02T08:05:33.844Z,3.90
2023-04-02T08:08:07.510Z,3.90
2023-04-02T08:10:39.287Z,3.90
2023-04-02T08:13:12.839Z,3.90
2023-04-02T08:15:45.125Z,3.90
2023-04-02T08:18:17.232Z,4.00
2023-04-02T08:20:50.186Z,4.00
2023-04-02T08:23:23.421Z,4.00
2023-04-02T08:25:55.905Z,3.90
2023-04-02T08:28:28.215Z,4.00
2023-04-02T08:31:00.100Z,4.00
2023-04-02T08:33:32.446Z,4.00
2023-04-02T08:36:05.791Z,4.00
2023-04-02T08:38:37.727Z,4.00
2023-04-02T08:41:17.945Z,4.00
2023-04-02T08:44:17.966Z,4.00
2023-04-02T08:47:01.284Z,4.00
2023-04-02T08:49:45.905Z,4.10
2023-04-02T08:52:29.583Z,4.10
2023-04-02T08:55:02.519Z,4.10
2023-04-02T08:57:47.416Z,4.10
2023-04-02T09:00:38.050Z,4.20
2023-04-02T09:03:20.402Z,4.20
2023-04-02T09:05:56.884Z,4.20
2023-04-02T09:08:33.156Z,4.20
2023-04-02T09:11:11.242Z,4.20
2023-04-02T09:13:51.863Z,4.20
2023-04-02T09:16:35.046Z,4.30
2023-04-02T09:19:15.884Z,4.30
2023-04-02T09:21:58.885Z,4.30
2023-04-02T09:24:31.854Z,4.40
2023-04-02T09:27:03.769Z,4.40
2023-04-02T09:29:48.583Z,4.40
2023-04-02T09:32:45.670Z,4.40
2023-04-02T09:35:25.986Z,4.40
2023-04-02T09:38:21.561Z,4.50
2023-04-02T09:41:05.386Z,4.50
2023-04-02T09:43:39.203Z,4.50
2023-04-02T09:46:26.048Z,4.60
2023-04-02T09:49:00.915Z,4.60
2023-04-02T09:51:36.522Z,4.60
2023-04-02T09:54:17.504Z,4.60
2023-04-02T09:59:42.613Z,4.70
2023-04-02T10:02:30.623Z,4.70
2023-04-02T10:05:23.520Z,4.70
2023-04-02T10:08:17.760Z,4.80
2023-04-02T10:10:54.213Z,4.80
2023-04-02T10:13:34.704Z,4.90
2023-04-02T10:16:14.245Z,4.90
2023-04-02T10:18:53.549Z,4.90
2023-04-02T10:21:30.271Z,4.90
2023-04-02T10:24:05.175Z,4.90
2023-04-02T10:26:58.958Z,5.00
2023-04-02T10:30:01.989Z,5.00
2023-04-02T10:32:43.950Z,5.10
2023-04-02T10:35:29.081Z,5.20
2023-04-02T10:38:22.810Z,5.20
2023-04-02T10:41:07.082Z,5.30
2023-04-02T10:44:16.813Z,5.30
2023-04-02T10:47:08.495Z,5.40
2023-04-02T10:49:56.193Z,5.40
2023-04-02T10:52:38.046Z,5.40
2023-04-02T10:55:19.078Z,5.50
2023-04-02T10:57:54.148Z,5.40
2023-04-02T11:00:32.403Z,5.50
2023-04-02T11:03:14.070Z,5.50
2023-04-02T11:05:50.866Z,5.60
2023-04-02T11:08:27.647Z,5.60
2023-04-02T11:11:07.872Z,5.70
2023-04-02T11:13:50.062Z,5.80
2023-04-02T11:16:22.409Z,5.80
2023-04-02T11:19:21.457Z,5.80
2023-04-02T11:21:59.868Z,5.90
2023-04-02T11:24:51.041Z,6.10
2023-04-02T11:27:26.962Z,6.40
2023-04-02T11:30:06.352Z,6.70
2023-04-02T11:32:47.344Z,6.70
2023-04-02T11:35:41.330Z,6.90
2023-04-02T11:38:52.811Z,7.00
2023-04-02T11:42:02.896Z,7.10
2023-04-02T11:44:34.479Z,7.20
2023-04-02T11:47:26.905Z,7.20
2023-04-02T11:50:27.305Z,7.40
2023-04-02T11:53:06.589Z,7.40
2023-04-02T11:55:41.366Z,7.70
2023-04-02T11:58:47.513Z,8.00
2023-04-02T12:02:00.653Z,8.10
2023-04-02T12:05:09.230Z,8.10
2023-04-02T12:08:13.555Z,8.20
2023-04-02T12:11:03.368Z,8.40
2023-04-02T12:13:59.552Z,8.50
2023-04-02T12:16:36.774Z,8.60
2023-04-02T12:19:16.499Z,8.50
2023-04-02T12:21:52.953Z,8.50
2023-04-02T12:24:25.881Z,8.50
2023-04-02T12:27:22.504Z,8.40
2023-04-02T12:29:55.873Z,8.50
2023-04-02T12:32:33.189Z,8.40
2023-04-02T12:35:06.187Z,8.40
2023-04-02T12:37:39.683Z,8.20
2023-04-02T12:40:25.642Z,8.20
2023-04-02T12:42:58.959Z,8.30
2023-04-02T12:45:36.561Z,8.30
2023-04-02T12:48:13.507Z,8.30
2023-04-02T12:50:45.647Z,8.20
2023-04-02T12:53:27.203Z,8.10
2023-04-02T12:55:59.517Z,8.10
2023-04-02T12:58:37.197Z,8.30
2023-04-02T13:01:21.244Z,8.70
2023-04-02T13:04:03.072Z,9.00
2023-04-02T13:06:36.167Z,9.20
2023-04-02T13:09:28.759Z,9.00
2023-04-02T13:12:01.048Z,9.30
2023-04-02T13:14:35.075Z,9.60
2023-04-02T13:17:25.709Z,9.60
2023-04-02T13:20:16.688Z,9.50
2023-04-02T13:22:50.479Z,9.40
2023-04-02T13:25:33.026Z,9.70
2023-04-02T13:28:04.845Z,9.80
2023-04-02T13:30:38.123Z,9.80
2023-04-02T13:33:12.609Z,9.70
2023-04-02T13:35:45.702Z,9.60
2023-04-02T13:38:17.295Z,9.70
2023-04-02T13:40:49.361Z,9.80
2023-04-02T13:43:23.681Z,10.00
2023-04-02T13:45:59.953Z,10.30
2023-04-02T13:48:31.794Z,10.30
2023-04-02T13:51:04.703Z,10.00
2023-04-02T13:53:39.796Z,9.80
2023-04-02T13:56:12.797Z,9.70
2023-04-02T13:58:44.769Z,9.60
2023-04-02T14:01:19.431Z,9.40
2023-04-02T14:03:51.582Z,9.20
2023-04-02T14:06:49.015Z,9.50
2023-04-02T14:09:34.190Z,9.80
2023-04-02T14:12:20.689Z,10.10
2023-04-02T14:15:09.257Z,10.40
2023-04-02T14:17:58.444Z,10.60
2023-04-02T14:20:41.418Z,10.30
2023-04-02T14:23:45.800Z,10.40
2023-04-02T14:26:39.346Z,10.60
2023-04-02T14:29:22.260Z,10.50
2023-04-02T14:32:05.085Z,10.30
2023-04-02T14:34:47.932Z,10.60
2023-04-02T14:37:29.761Z,10.60
2023-04-02T14:40:15.501Z,10.70
2023-04-02T14:42:54.763Z,10.50
2023-04-02T14:45:54.306Z,10.70
2023-04-02T14:48:41.700Z,10.90
2023-04-02T14:51:22.111Z,11.00
2023-04-02T14:54:02.850Z,11.00
2023-04-02T14:56:41.633Z,11.10
2023-04-02T14:59:29.769Z,11.40
2023-04-02T15:02:08.704Z,11.20
2023-04-02T15:04:46.909Z,10.70
2023-04-02T15:07:28.478Z,10.30
2023-04-02T15:10:17.980Z,10.10
2023-04-02T15:12:52.656Z,9.90
2023-04-02T15:15:40.286Z,9.70
2023-04-02T15:18:15.893Z,10.00
2023-04-02T15:20:58.246Z,10.40
2023-04-02T15:23:44.015Z,10.50
2023-04-02T15:26:26.303Z,10.60
2023-04-02T15:29:25.879Z,10.70
2023-04-02T15:32:16.329Z,10.90
2023-04-02T15:34:57.441Z,11.20
2023-04-02T15:37:34.397Z,11.40
2023-04-02T15:40:30.909Z,11.30
2023-04-02T15:43:15.378Z,11.00
2023-04-02T15:46:13.693Z,10.60
2023-04-02T15:49:24.396Z,10.30
2023-04-02T15:52:08.807Z,10.10
2023-04-02T15:55:11.229Z,10.30
2023-04-02T15:58:20.821Z,10.50
2023-04-02T16:01:04.079Z,10.60
2023-04-02T16:04:19.791Z,10.60
2023-04-02T16:07:13.833Z,10.30
2023-04-02T16:09:58.653Z,10.20
2023-04-02T16:12:34.334Z,10.20
2023-04-02T16:15:23.448Z,10.20
2023-04-02T16:18:02.842Z,10.10
2023-04-02T16:20:42.528Z,10.10
2023-04-02T16:23:24.545Z,10.10
2023-04-02T16:26:12.827Z,9.80
2023-04-02T16:28:55.752Z,9.90
2023-04-02T16:31:39.543Z,9.80
2023-04-02T16:34:24.339Z,10.00
2023-04-02T16:37:09.253Z,10.10
2023-04-02T16:39:50.574Z,10.10
2023-04-02T16:42:34.128Z,10.00
2023-04-02T16:45:25.085Z,9.80
2023-04-02T16:48:12.677Z,9.50
2023-04-02T16:50:57.713Z,9.40
2023-04-02T16:53:58.486Z,9.40
2023-04-02T16:56:46.821Z,9.30
2023-04-02T16:59:28.122Z,9.30
2023-04-02T17:02:04.767Z,9.20
2023-04-02T17:04:59.768Z,9.30
2023-04-02T17:07:45.890Z,9.20
2023-04-02T17:10:31.381Z,9.20
2023-04-02T17:13:18.843Z,9.20
2023-04-02T17:16:03.440Z,9.20
2023-04-02T17:18:36.400Z,9.10
2023-04-02T17:21:15.314Z,9.00
2023-04-02T17:26:30.873Z,8.80
2023-04-02T17:29:09.106Z,8.80
2023-04-02T17:31:43.188Z,8.70
2023-04-02T17:34:18.843Z,8.70
2023-04-02T17:37:01.151Z,8.70
2023-04-02T17:39:49.805Z,8.70
2023-04-02T17:42:35.496Z,8.60
2023-04-02T17:45:15.350Z,8.50
2023-04-02T17:47:57.249Z,8.50
2023-04-02T17:51:03.882Z,8.40
2023-04-02T17:53:50.030Z,8.30
2023-04-02T17:56:40.930Z,8.30
2023-04-02T17:59:38.091Z,8.30
2023-04-02T18:02:37.977Z,8.30
2023-04-02T18:05:22.237Z,8.20
2023-04-02T18:08:04.838Z,8.20
2023-04-02T18:10:47.229Z,8.20
2023-04-02T18:13:33.811Z,8.10
2023-04-02T18:16:42.575Z,8.00
2023-04-02T18:19:21.232Z,7.80
2023-04-02T18:22:03.864Z,7.80
2023-04-02T18:25:06.919Z,7.80
2023-04-02T18:27:56.564Z,7.70
2023-04-02T18:30:37.276Z,7.70
2023-04-02T18:33:36.685Z,7.60
2023-04-02T18:36:18.993Z,7.50
2023-04-02T18:39:01.011Z,7.50
2023-04-02T18:41:47.552Z,7.40
2023-04-02T18:44:43.784Z,7.50
2023-04-02T18:47:23.897Z,7.30
2023-04-02T18:50:15.641Z,7.20
2023-04-02T18:52:49.658Z,7.10
2023-04-02T18:55:27.252Z,7.10
2023-04-02T18:58:07.282Z,7.20
2023-04-02T19:00:45.600Z,7.20
2023-04-02T19:03:24.088Z,7.10
2023-04-02T19:06:00.910Z,7.00
2023-04-02T19:08:40.251Z,7.00
2023-04-02T19:11:17.458Z,6.90
2023-04-02T19:13:51.319Z,6.80
2023-04-02T19:16:58.449Z,6.80
2023-04-02T19:19:38.114Z,6.80
2023-04-02T19:22:26.275Z,6.80
2023-04-02T19:25:35.819Z,6.80
2023-04-02T19:28:20.168Z,6.80
2023-04-02T19:31:20.369Z,6.70
2023-04-02T19:34:03.792Z,6.50
2023-04-02T19:36:47.182Z,6.50
2023-04-02T19:39:46.642Z,6.50
2023-04-02T19:42:34.980Z,6.50
2023-04-02T19:45:20.308Z,6.40
2023-04-02T19:47:52.038Z,6.50
2023-04-02T19:50:25.606Z,6.40
2023-04-02T19:52:57.615Z,6.40
2023-04-02T19:55:30.616Z,6.40
2023-04-02T19:58:13.186Z,6.20
2023-04-02T20:00:51.054Z,6.20
2023-04-02T20:03:22.975Z,6.10
2023-04-02T20:05:56.864Z,6.10
2023-04-02T20:08:28.970Z,5.90
2023-04-02T20:11:01.931Z,5.90
2023-04-02T20:13:33.856Z,5.80
2023-04-02T20:16:08.451Z,5.90
2023-04-02T20:18:40.251Z,5.80
2023-04-02T20:21:14.020Z,5.90
2023-04-02T20:23:46.023Z,5.80
2023-04-02T20:26:18.083Z,5.80
2023-04-02T20:28:50.030Z,5.70
2023-04-02T20:31:23.228Z,5.80
2023-04-02T20:33:58.740Z,5.70
2023-04-02T20:36:32.287Z,5.60
2023-04-02T20:39:07.059Z,5.60
2023-04-02T20:41:38.834Z,5.60
2023-04-02T20:44:11.089Z,5.70
2023-04-02T20:46:42.707Z,5.60
2023-04-02T20:49:14.563Z,5.50
2023-04-02T20:51:48.547Z,5.40
2023-04-02T20:54:20.767Z,5.40
2023-04-02T20:56:52.615Z,5.40
2023-04-02T20:59:24.220Z,5.30
2023-04-02T21:01:56.258Z,5.30
2023-04-02T21:04:28.152Z,5.30
2023-04-02T21:07:01.186Z,5.20
2023-04-02T21:09:33.023Z,5.10
2023-04-02T21:12:04.752Z,5.10
2023-04-02T21:14:38.949Z,5.00
2023-04-02T21:17:11.095Z,5.00
2023-04-02T21:19:42.804Z,4.90
2023-04-02T21:22:17.079Z,5.00
2023-04-02T21:24:49.009Z,4.90
2023-04-02T21:27:22.210Z,4.90
2023-04-02T21:29:53.939Z,4.80
2023-04-02T21:32:25.710Z,4.80
2023-04-02T21:34:57.385Z,4.80
2023-04-02T21:37:30.664Z,4.70
2023-04-02T21:40:02.584Z,4.80
2023-04-02T21:42:34.419Z,4.70
2023-04-02T21:45:06.400Z,4.80
2023-04-02T21:47:38.282Z,4.70
2023-04-02T21:50:11.111Z,4.70
2023-04-02T21:52:44.327Z,4.60
2023-04-02T21:55:16.296Z,4.70
2023-04-02T21:57:48.106Z,4.50
2023-04-02T22:00:21.117Z,4.50
2023-04-02T22:02:52.886Z,4.60
2023-04-02T22:05:24.795Z,4.60
2023-04-02T22:07:57.956Z,4.40
2023-04-02T22:10:29.786Z,4.20
2023-04-02T22:13:02.411Z,4.20
2023-04-02T22:15:36.644Z,4.10
2023-04-02T22:18:09.143Z,4.00
2023-04-02T22:20:43.828Z,4.10
2023-04-02T22:23:18.251Z,4.10
2023-04-02T22:25:50.540Z,4.20
2023-04-02T22:28:22.595Z,4.00
2023-04-02T22:30:54.913Z,4.10
2023-04-02T22:33:27.978Z,4.10
2023-04-02T22:36:00.415Z,4.10
2023-04-02T22:38:34.905Z,4.10
2023-04-02T22:41:09.812Z,4.10
2023-04-02T22:43:44.069Z,4.00
2023-04-02T22:46:19.066Z,3.90
2023-04-02T22:48:52.435Z,3.80
2023-04-02T22:51:27.517Z,3.90
2023-04-02T22:54:01.337Z,3.90
2023-04-02T22:56:35.283Z,3.80
2023-04-02T22:59:06.951Z,3.80
2023-04-02T23:01:39.886Z,3.70
2023-04-02T23:04:12.087Z,3.70
2023-04-02T23:06:43.751Z,3.60
2023-04-02T23:09:16.805Z,3.80
2023-04-02T23:11:48.769Z,3.60
2023-04-02T23:14:20.675Z,3.60
2023-04-02T23:16:52.493Z,3.60
2023-04-02T23:19:24.443Z,3.60
2023-04-02T23:21:56.205Z,3.60
2023-04-02T23:24:29.209Z,3.50
2023-04-02T23:27:01.026Z,3.50
2023-04-02T23:29:32.961Z,3.60
2023-04-02T23:32:04.863Z,3.50
2023-04-02T23:34:36.676Z,3.30
2023-04-02T23:37:08.580Z,3.20
2023-04-02T23:39:41.751Z,3.20
2023-04-02T23:42:13.975Z,3.20
2023-04-02T23:44:45.796Z,3.20
2023-04-02T23:47:17.636Z,3.20
2023-04-02T23:49:49.436Z,3.20
2023-04-02T23:52:21.238Z,3.10
2023-04-02T23:54:54.404Z,3.20
2023-04-02T23:57:26.341Z,3.10
2023-04-02T23:59:58.161Z,3.10
